sensor_id;sensor_type;location;lat;lon;timestamp;P1;durP1;ratioP1;P2;durP2;ratioP2
16854;SDS011;8543;54.522;18.550;2023-03-01T00:01:13;6.60;;;3.70;;
16854;SDS011;8543;54.522;18.550;2023-03-01T00:03:40;12.60;;;4.70;;
16854;SDS011;8543;54.522;18.550;2023-03-01T00:06:06;7.90;;;4.40;;
16854;SDS011;8543;54.522;18.550;2023-03-01T00:08:32;7.40;;;4.20;;
16854;SDS011;8543;54.522;18.550;2023-03-01T00:11:05;8.70;;;4.00;;
16854;SDS011;8543;54.522;18.550;2023-03-01T00:13:33;9.40;;;4.50;;
16854;SDS011;8543;54.522;18.550;2023-03-01T00:16:01;10.70;;;4.70;;
16854;SDS011;8543;54.522;18.550;2023-03-01T00:18:28;6.10;;;3.80;;
16854;SDS011;8543;54.522;18.550;2023-03-01T00:20:54;8.40;;;4.10;;
16854;SDS011;8543;54.522;18.550;2023-03-01T00:23:20;8.10;;;4.10;;
16854;SDS011;8543;54.522;18.550;2023-03-01T00:25:46;9.60;;;3.90;;
16854;SDS011;8543;54.522;18.550;2023-03-01T00:28:12;10.00;;;4.40;;
16854;SDS011;8543;54.522;18.550;2023-03-01T00:30:37;8.80;;;3.90;;
16854;SDS011;8543;54.522;18.550;2023-03-01T00:33:03;8.10;;;4.50;;
16854;SDS011;8543;54.522;18.550;2023-03-01T00:35:28;7.70;;;4.20;;
16854;SDS011;8543;54.522;18.550;2023-03-01T00:37:54;10.90;;;4.80;;
16854;SDS011;8543;54.522;18.550;2023-03-01T00:40:26;7.70;;;4.10;;
16854;SDS011;8543;54.522;18.550;2023-03-01T00:42:52;9.90;;;3.80;;
16854;SDS011;8543;54.522;18.550;2023-03-01T00:45:18;8.70;;;4.70;;
16854;SDS011;8543;54.522;18.550;2023-03-01T00:47:43;9.20;;;4.30;;
16854;SDS011;8543;54.522;18.550;2023-03-01T00:50:09;10.90;;;4.70;;
16854;SDS011;8543;54.522;18.550;2023-03-01T00:52:35;10.80;;;5.20;;
16854;SDS011;8543;54.522;18.550;2023-03-01T00:55:01;10.00;;;4.90;;
16854;SDS011;8543;54.522;18.550;2023-03-01T00:57:27;8.90;;;4.80;;
16854;SDS011;8543;54.522;18.550;2023-03-01T00:59:52;8.20;;;4.50;;
16854;SDS011;8543;54.522;18.550;2023-03-01T01:02:18;8.40;;;4.60;;
16854;SDS011;8543;54.522;18.550;2023-03-01T01:04:44;9.80;;;4.80;;
16854;SDS011;8543;54.522;18.550;2023-03-01T01:07:10;8.80;;;4.80;;
16854;SDS011;8543;54.522;18.550;2023-03-01T01:09:35;9.00;;;4.30;;
16854;SDS011;8543;54.522;18.550;2023-03-01T01:12:02;11.90;;;5.10;;
16854;SDS011;8543;54.522;18.550;2023-03-01T01:14:27;11.30;;;4.30;;
16854;SDS011;8543;54.522;18.550;2023-03-01T01:16:53;11.80;;;5.20;;
16854;SDS011;8543;54.522;18.550;2023-03-01T01:19:18;8.50;;;4.90;;
16854;SDS011;8543;54.522;18.550;2023-03-01T01:21:44;10.70;;;4.80;;
16854;SDS011;8543;54.522;18.550;2023-03-01T01:24:10;10.60;;;4.90;;
16854;SDS011;8543;54.522;18.550;2023-03-01T01:26:36;9.60;;;4.40;;
16854;SDS011;8543;54.522;18.550;2023-03-01T01:29:02;10.00;;;4.90;;
16854;SDS011;8543;54.522;18.550;2023-03-01T01:31:28;9.10;;;4.60;;
16854;SDS011;8543;54.522;18.550;2023-03-01T01:33:54;8.80;;;4.60;;
16854;SDS011;8543;54.522;18.550;2023-03-01T01:36:20;11.80;;;5.00;;
16854;SDS011;8543;54.522;18.550;2023-03-01T01:38:46;8.80;;;4.70;;
16854;SDS011;8543;54.522;18.550;2023-03-01T01:41:12;10.30;;;5.00;;
16854;SDS011;8543;54.522;18.550;2023-03-01T01:43:42;9.60;;;4.60;;
16854;SDS011;8543;54.522;18.550;2023-03-01T01:48:57;11.10;;;5.40;;
16854;SDS011;8543;54.522;18.550;2023-03-01T01:51:29;9.40;;;4.50;;
16854;SDS011;8543;54.522;18.550;2023-03-01T01:54:03;13.20;;;5.40;;
16854;SDS011;8543;54.522;18.550;2023-03-01T01:56:44;12.20;;;5.80;;
16854;SDS011;8543;54.522;18.550;2023-03-01T01:59:13;13.20;;;6.00;;
16854;SDS011;8543;54.522;18.550;2023-03-01T02:01:39;9.10;;;5.40;;
16854;SDS011;8543;54.522;18.550;2023-03-01T02:04:05;9.50;;;5.60;;
16854;SDS011;8543;54.522;18.550;2023-03-01T02:06:38;10.20;;;5.60;;
16854;SDS011;8543;54.522;18.550;2023-03-01T02:09:06;13.10;;;6.00;;
16854;SDS011;8543;54.522;18.550;2023-03-01T02:11:33;10.10;;;5.30;;
16854;SDS011;8543;54.522;18.550;2023-03-01T02:13:59;13.40;;;6.00;;
16854;SDS011;8543;54.522;18.550;2023-03-01T02:16:25;12.70;;;6.40;;
16854;SDS011;8543;54.522;18.550;2023-03-01T02:18:50;11.10;;;6.00;;
16854;SDS011;8543;54.522;18.550;2023-03-01T02:23:55;13.60;;;6.10;;
16854;SDS011;8543;54.522;18.550;2023-03-01T02:29:23;11.70;;;6.20;;
16854;SDS011;8543;54.522;18.550;2023-03-01T02:31:49;13.40;;;6.80;;
16854;SDS011;8543;54.522;18.550;2023-03-01T02:34:15;12.70;;;6.40;;
16854;SDS011;8543;54.522;18.550;2023-03-01T02:36:47;10.70;;;6.00;;
16854;SDS011;8543;54.522;18.550;2023-03-01T02:39:17;15.00;;;7.10;;
16854;SDS011;8543;54.522;18.550;2023-03-01T02:41:48;10.80;;;6.10;;
16854;SDS011;8543;54.522;18.550;2023-03-01T02:44:15;12.40;;;6.10;;
16854;SDS011;8543;54.522;18.550;2023-03-01T02:46:42;13.80;;;6.40;;
16854;SDS011;8543;54.522;18.550;2023-03-01T02:49:24;12.70;;;5.90;;
16854;SDS011;8543;54.522;18.550;2023-03-01T02:51:54;12.40;;;6.40;;
16854;SDS011;8543;54.522;18.550;2023-03-01T02:54:49;12.50;;;6.30;;
16854;SDS011;8543;54.522;18.550;2023-03-01T02:57:16;12.20;;;6.60;;
16854;SDS011;8543;54.522;18.550;2023-03-01T02:59:43;13.30;;;6.60;;
16854;SDS011;8543;54.522;18.550;2023-03-01T03:02:21;14.00;;;7.30;;
16854;SDS011;8543;54.522;18.550;2023-03-01T03:05:14;13.90;;;7.00;;
16854;SDS011;8543;54.522;18.550;2023-03-01T03:07:42;13.60;;;6.90;;
16854;SDS011;8543;54.522;18.550;2023-03-01T03:10:11;15.40;;;7.70;;
16854;SDS011;8543;54.522;18.550;2023-03-01T03:12:38;12.30;;;6.70;;
16854;SDS011;8543;54.522;18.550;2023-03-01T03:15:04;11.90;;;6.80;;
16854;SDS011;8543;54.522;18.550;2023-03-01T03:17:37;13.40;;;6.40;;
16854;SDS011;8543;54.522;18.550;2023-03-01T03:20:07;12.60;;;6.60;;
16854;SDS011;8543;54.522;18.550;2023-03-01T03:22:37;11.20;;;6.20;;
16854;SDS011;8543;54.522;18.550;2023-03-01T03:25:06;12.60;;;6.30;;
16854;SDS011;8543;54.522;18.550;2023-03-01T03:27:39;12.30;;;6.40;;
16854;SDS011;8543;54.522;18.550;2023-03-01T03:30:09;11.80;;;6.30;;
16854;SDS011;8543;54.522;18.550;2023-03-01T03:32:40;11.70;;;6.50;;
16854;SDS011;8543;54.522;18.550;2023-03-01T03:35:07;11.80;;;6.00;;
16854;SDS011;8543;54.522;18.550;2023-03-01T03:37:40;13.60;;;6.80;;
16854;SDS011;8543;54.522;18.550;2023-03-01T03:40:24;11.60;;;6.60;;
16854;SDS011;8543;54.522;18.550;2023-03-01T03:42:52;13.50;;;7.30;;
16854;SDS011;8543;54.522;18.550;2023-03-01T03:45:17;15.00;;;6.80;;
16854;SDS011;8543;54.522;18.550;2023-03-01T03:47:43;13.20;;;7.00;;
16854;SDS011;8543;54.522;18.550;2023-03-01T03:50:09;13.60;;;6.60;;
16854;SDS011;8543;54.522;18.550;2023-03-01T03:52:38;11.90;;;6.40;;
16854;SDS011;8543;54.522;18.550;2023-03-01T03:55:05;15.40;;;6.90;;
16854;SDS011;8543;54.522;18.550;2023-03-01T03:57:36;14.10;;;6.50;;
16854;SDS011;8543;54.522;18.550;2023-03-01T04:00:02;11.90;;;6.20;;
16854;SDS011;8543;54.522;18.550;2023-03-01T04:02:37;13.70;;;6.30;;
16854;SDS011;8543;54.522;18.550;2023-03-01T04:05:04;13.10;;;6.70;;
16854;SDS011;8543;54.522;18.550;2023-03-01T04:07:30;11.20;;;6.50;;
16854;SDS011;8543;54.522;18.550;2023-03-01T04:09:55;13.10;;;7.00;;
16854;SDS011;8543;54.522;18.550;2023-03-01T04:12:21;14.90;;;7.20;;
16854;SDS011;8543;54.522;18.550;2023-03-01T04:14:48;16.60;;;7.40;;
16854;SDS011;8543;54.522;18.550;2023-03-01T04:17:13;12.30;;;6.40;;
16854;SDS011;8543;54.522;18.550;2023-03-01T04:19:39;12.40;;;6.60;;
16854;SDS011;8543;54.522;18.550;2023-03-01T04:22:04;14.50;;;6.80;;
16854;SDS011;8543;54.522;18.550;2023-03-01T04:24:37;12.90;;;6.30;;
16854;SDS011;8543;54.522;18.550;2023-03-01T04:27:02;16.20;;;7.50;;
16854;SDS011;8543;54.522;18.550;2023-03-01T04:29:28;11.90;;;6.70;;
16854;SDS011;8543;54.522;18.550;2023-03-01T04:31:53;11.00;;;6.30;;
16854;SDS011;8543;54.522;18.550;2023-03-01T04:34:19;11.50;;;6.70;;
16854;SDS011;8543;54.522;18.550;2023-03-01T04:36:44;13.00;;;6.80;;
16854;SDS011;8543;54.522;18.550;2023-03-01T04:39:10;12.10;;;6.50;;
16854;SDS011;8543;54.522;18.550;2023-03-01T04:41:38;13.50;;;6.70;;
16854;SDS011;8543;54.522;18.550;2023-03-01T04:44:05;10.90;;;6.00;;
16854;SDS011;8543;54.522;18.550;2023-03-01T04:46:31;13.40;;;7.00;;
16854;SDS011;8543;54.522;18.550;2023-03-01T04:48:57;16.30;;;7.50;;
16854;SDS011;8543;54.522;18.550;2023-03-01T04:51:22;15.20;;;8.00;;
16854;SDS011;8543;54.522;18.550;2023-03-01T04:53:48;15.40;;;7.60;;
16854;SDS011;8543;54.522;18.550;2023-03-01T04:56:13;16.50;;;7.70;;
16854;SDS011;8543;54.522;18.550;2023-03-01T04:58:39;14.00;;;7.50;;
16854;SDS011;8543;54.522;18.550;2023-03-01T05:01:09;12.20;;;7.00;;
16854;SDS011;8543;54.522;18.550;2023-03-01T05:03:45;13.10;;;6.30;;
16854;SDS011;8543;54.522;18.550;2023-03-01T05:06:15;13.00;;;6.90;;
16854;SDS011;8543;54.522;18.550;2023-03-01T05:08:41;14.80;;;7.20;;
16854;SDS011;8543;54.522;18.550;2023-03-01T05:11:07;12.80;;;7.50;;
16854;SDS011;8543;54.522;18.550;2023-03-01T05:13:36;13.60;;;7.50;;
16854;SDS011;8543;54.522;18.550;2023-03-01T05:16:03;12.10;;;7.40;;
16854;SDS011;8543;54.522;18.550;2023-03-01T05:18:31;12.50;;;6.90;;
16854;SDS011;8543;54.522;18.550;2023-03-01T05:21:05;16.10;;;8.50;;
16854;SDS011;8543;54.522;18.550;2023-03-01T05:23:41;16.20;;;8.30;;
16854;SDS011;8543;54.522;18.550;2023-03-01T05:26:06;15.70;;;8.60;;
16854;SDS011;8543;54.522;18.550;2023-03-01T05:28:33;17.80;;;8.40;;
16854;SDS011;8543;54.522;18.550;2023-03-01T05:30:59;15.60;;;7.60;;
16854;SDS011;8543;54.522;18.550;2023-03-01T05:33:25;13.30;;;7.40;;
16854;SDS011;8543;54.522;18.550;2023-03-01T05:35:51;13.40;;;8.10;;
16854;SDS011;8543;54.522;18.550;2023-03-01T05:38:17;14.60;;;7.60;;
16854;SDS011;8543;54.522;18.550;2023-03-01T05:40:44;14.60;;;7.50;;
16854;SDS011;8543;54.522;18.550;2023-03-01T05:43:14;14.10;;;7.60;;
16854;SDS011;8543;54.522;18.550;2023-03-01T05:45:40;12.80;;;6.80;;
16854;SDS011;8543;54.522;18.550;2023-03-01T05:48:06;13.50;;;7.20;;
16854;SDS011;8543;54.522;18.550;2023-03-01T05:50:34;13.20;;;6.80;;
16854;SDS011;8543;54.522;18.550;2023-03-01T05:53:02;13.50;;;7.10;;
16854;SDS011;8543;54.522;18.550;2023-03-01T05:55:31;13.30;;;7.20;;
16854;SDS011;8543;54.522;18.550;2023-03-01T05:57:59;14.40;;;7.60;;
16854;SDS011;8543;54.522;18.550;2023-03-01T06:00:26;13.70;;;7.70;;
16854;SDS011;8543;54.522;18.550;2023-03-01T06:02:53;13.60;;;7.50;;
16854;SDS011;8543;54.522;18.550;2023-03-01T06:05:19;15.10;;;7.10;;
16854;SDS011;8543;54.522;18.550;2023-03-01T06:07:44;13.00;;;7.40;;
16854;SDS011;8543;54.522;18.550;2023-03-01T06:10:10;14.70;;;7.80;;
16854;SDS011;8543;54.522;18.550;2023-03-01T06:12:37;13.50;;;7.60;;
16854;SDS011;8543;54.522;18.550;2023-03-01T06:15:04;13.70;;;8.00;;
16854;SDS011;8543;54.522;18.550;2023-03-01T06:17:34;14.00;;;8.60;;
16854;SDS011;8543;54.522;18.550;2023-03-01T06:20:10;14.90;;;7.70;;
16854;SDS011;8543;54.522;18.550;2023-03-01T06:22:37;14.30;;;7.90;;
16854;SDS011;8543;54.522;18.550;2023-03-01T06:25:03;14.20;;;8.00;;
16854;SDS011;8543;54.522;18.550;2023-03-01T06:27:29;14.70;;;8.60;;
16854;SDS011;8543;54.522;18.550;2023-03-01T06:29:55;12.70;;;7.80;;
16854;SDS011;8543;54.522;18.550;2023-03-01T06:32:20;13.80;;;8.30;;
16854;SDS011;8543;54.522;18.550;2023-03-01T06:34:46;13.50;;;9.00;;
16854;SDS011;8543;54.522;18.550;2023-03-01T06:37:11;13.30;;;8.60;;
16854;SDS011;8543;54.522;18.550;2023-03-01T06:39:37;12.30;;;8.10;;
16854;SDS011;8543;54.522;18.550;2023-03-01T06:42:02;13.80;;;8.50;;
16854;SDS011;8543;54.522;18.550;2023-03-01T06:44:28;13.30;;;8.30;;
16854;SDS011;8543;54.522;18.550;2023-03-01T06:46:53;11.90;;;7.90;;
16854;SDS011;8543;54.522;18.550;2023-03-01T06:49:19;12.40;;;8.20;;
16854;SDS011;8543;54.522;18.550;2023-03-01T06:51:45;11.40;;;7.90;;
16854;SDS011;8543;54.522;18.550;2023-03-01T06:54:11;11.50;;;8.20;;
16854;SDS011;8543;54.522;18.550;2023-03-01T06:56:37;11.10;;;8.40;;
16854;SDS011;8543;54.522;18.550;2023-03-01T06:59:02;12.10;;;8.20;;
16854;SDS011;8543;54.522;18.550;2023-03-01T07:01:29;10.90;;;8.00;;
16854;SDS011;8543;54.522;18.550;2023-03-01T07:03:55;10.40;;;8.00;;
16854;SDS011;8543;54.522;18.550;2023-03-01T07:06:21;10.80;;;8.50;;
16854;SDS011;8543;54.522;18.550;2023-03-01T07:08:46;9.80;;;8.20;;
16854;SDS011;8543;54.522;18.550;2023-03-01T07:11:12;10.90;;;8.30;;
16854;SDS011;8543;54.522;18.550;2023-03-01T07:13:38;9.90;;;8.50;;
16854;SDS011;8543;54.522;18.550;2023-03-01T07:16:03;12.20;;;8.60;;
16854;SDS011;8543;54.522;18.550;2023-03-01T07:18:29;11.50;;;8.80;;
16854;SDS011;8543;54.522;18.550;2023-03-01T07:20:54;10.20;;;8.50;;
16854;SDS011;8543;54.522;18.550;2023-03-01T07:23:20;9.70;;;8.10;;
16854;SDS011;8543;54.522;18.550;2023-03-01T07:25:51;9.10;;;7.90;;
16854;SDS011;8543;54.522;18.550;2023-03-01T07:28:18;10.10;;;8.20;;
16854;SDS011;8543;54.522;18.550;2023-03-01T07:30:43;9.00;;;8.10;;
16854;SDS011;8543;54.522;18.550;2023-03-01T07:33:09;9.70;;;8.70;;
16854;SDS011;8543;54.522;18.550;2023-03-01T07:35:35;9.70;;;8.70;;
16854;SDS011;8543;54.522;18.550;2023-03-01T07:38:00;10.50;;;8.80;;
16854;SDS011;8543;54.522;18.550;2023-03-01T07:40:26;9.10;;;8.20;;
16854;SDS011;8543;54.522;18.550;2023-03-01T07:42:55;9.40;;;8.40;;
16854;SDS011;8543;54.522;18.550;2023-03-01T07:45:23;9.30;;;8.40;;
16854;SDS011;8543;54.522;18.550;2023-03-01T07:47:50;8.90;;;8.00;;
16854;SDS011;8543;54.522;18.550;2023-03-01T07:50:16;9.10;;;8.20;;
16854;SDS011;8543;54.522;18.550;2023-03-01T07:52:41;8.60;;;7.80;;
16854;SDS011;8543;54.522;18.550;2023-03-01T07:55:09;7.70;;;6.90;;
16854;SDS011;8543;54.522;18.550;2023-03-01T07:57:35;8.00;;;7.20;;
16854;SDS011;8543;54.522;18.550;2023-03-01T08:00:00;8.40;;;7.60;;
16854;SDS011;8543;54.522;18.550;2023-03-01T08:02:25;9.00;;;8.20;;
16854;SDS011;8543;54.522;18.550;2023-03-01T08:04:51;8.20;;;7.40;;
16854;SDS011;8543;54.522;18.550;2023-03-01T08:07:16;7.50;;;6.80;;
16854;SDS011;8543;54.522;18.550;2023-03-01T08:09:42;7.40;;;6.70;;
16854;SDS011;8543;54.522;18.550;2023-03-01T08:12:07;7.70;;;6.90;;
16854;SDS011;8543;54.522;18.550;2023-03-01T08:14:33;8.20;;;7.30;;
16854;SDS011;8543;54.522;18.550;2023-03-01T08:16:58;8.10;;;7.30;;
16854;SDS011;8543;54.522;18.550;2023-03-01T08:19:24;8.70;;;7.40;;
16854;SDS011;8543;54.522;18.550;2023-03-01T08:21:49;9.10;;;7.50;;
16854;SDS011;8543;54.522;18.550;2023-03-01T08:24:19;7.80;;;6.70;;
16854;SDS011;8543;54.522;18.550;2023-03-01T08:26:44;8.80;;;7.20;;
16854;SDS011;8543;54.522;18.550;2023-03-01T08:29:10;8.70;;;6.40;;
16854;SDS011;8543;54.522;18.550;2023-03-01T08:31:36;8.90;;;7.00;;
16854;SDS011;8543;54.522;18.550;2023-03-01T08:34:04;8.20;;;6.70;;
16854;SDS011;8543;54.522;18.550;2023-03-01T08:36:33;8.10;;;6.50;;
16854;SDS011;8543;54.522;18.550;2023-03-01T08:39:05;8.30;;;6.50;;
16854;SDS011;8543;54.522;18.550;2023-03-01T08:41:31;8.20;;;6.00;;
16854;SDS011;8543;54.522;18.550;2023-03-01T08:43:56;8.70;;;6.00;;
16854;SDS011;8543;54.522;18.550;2023-03-01T08:46:26;8.40;;;6.10;;
16854;SDS011;8543;54.522;18.550;2023-03-01T08:48:52;7.90;;;5.60;;
16854;SDS011;8543;54.522;18.550;2023-03-01T08:51:18;9.20;;;6.40;;
16854;SDS011;8543;54.522;18.550;2023-03-01T08:53:44;9.00;;;6.20;;
16854;SDS011;8543;54.522;18.550;2023-03-01T08:56:09;8.40;;;6.30;;
16854;SDS011;8543;54.522;18.550;2023-03-01T08:58:36;8.60;;;6.40;;
16854;SDS011;8543;54.522;18.550;2023-03-01T09:01:09;7.90;;;5.50;;
16854;SDS011;8543;54.522;18.550;2023-03-01T09:03:35;9.90;;;6.00;;
16854;SDS011;8543;54.522;18.550;2023-03-01T09:06:01;9.60;;;6.30;;
16854;SDS011;8543;54.522;18.550;2023-03-01T09:08:27;8.50;;;5.60;;
16854;SDS011;8543;54.522;18.550;2023-03-01T09:10:53;8.40;;;5.50;;
16854;SDS011;8543;54.522;18.550;2023-03-01T09:13:18;7.70;;;5.00;;
16854;SDS011;8543;54.522;18.550;2023-03-01T09:15:44;8.30;;;5.30;;
16854;SDS011;8543;54.522;18.550;2023-03-01T09:18:09;8.70;;;5.50;;
16854;SDS011;8543;54.522;18.550;2023-03-01T09:20:35;9.70;;;5.60;;
16854;SDS011;8543;54.522;18.550;2023-03-01T09:23:00;8.10;;;5.40;;
16854;SDS011;8543;54.522;18.550;2023-03-01T09:25:26;8.00;;;5.40;;
16854;SDS011;8543;54.522;18.550;2023-03-01T09:27:51;7.60;;;5.50;;
16854;SDS011;8543;54.522;18.550;2023-03-01T09:30:17;8.10;;;5.50;;
16854;SDS011;8543;54.522;18.550;2023-03-01T09:32:44;8.50;;;5.80;;
16854;SDS011;8543;54.522;18.550;2023-03-01T09:35:10;9.10;;;5.40;;
16854;SDS011;8543;54.522;18.550;2023-03-01T09:37:36;9.20;;;5.80;;
16854;SDS011;8543;54.522;18.550;2023-03-01T09:40:05;8.90;;;5.30;;
16854;SDS011;8543;54.522;18.550;2023-03-01T09:42:32;8.20;;;5.30;;
16854;SDS011;8543;54.522;18.550;2023-03-01T09:45:02;8.90;;;5.60;;
16854;SDS011;8543;54.522;18.550;2023-03-01T09:47:30;9.30;;;5.60;;
16854;SDS011;8543;54.522;18.550;2023-03-01T09:52:44;9.30;;;5.70;;
16854;SDS011;8543;54.522;18.550;2023-03-01T09:55:13;9.00;;;5.70;;
16854;SDS011;8543;54.522;18.550;2023-03-01T10:00:12;7.90;;;5.40;;
16854;SDS011;8543;54.522;18.550;2023-03-01T10:05:34;8.80;;;6.00;;
16854;SDS011;8543;54.522;18.550;2023-03-01T10:10:38;10.40;;;6.00;;
16854;SDS011;8543;54.522;18.550;2023-03-01T10:13:15;10.40;;;6.50;;
16854;SDS011;8543;54.522;18.550;2023-03-01T10:15:48;12.30;;;7.00;;
16854;SDS011;8543;54.522;18.550;2023-03-01T10:18:20;12.90;;;7.60;;
16854;SDS011;8543;54.522;18.550;2023-03-01T10:20:55;14.10;;;7.80;;
16854;SDS011;8543;54.522;18.550;2023-03-01T10:34:07;9.30;;;5.50;;
16854;SDS011;8543;54.522;18.550;2023-03-01T10:36:37;12.90;;;6.70;;
16854;SDS011;8543;54.522;18.550;2023-03-01T10:39:06;16.60;;;6.30;;
16854;SDS011;8543;54.522;18.550;2023-03-01T10:41:45;13.20;;;6.30;;
16854;SDS011;8543;54.522;18.550;2023-03-01T10:44:43;10.70;;;6.50;;
16854;SDS011;8543;54.522;18.550;2023-03-01T10:47:14;10.30;;;6.60;;
16854;SDS011;8543;54.522;18.550;2023-03-01T10:50:04;10.80;;;6.80;;
16854;SDS011;8543;54.522;18.550;2023-03-01T10:52:37;12.30;;;6.70;;
16854;SDS011;8543;54.522;18.550;2023-03-01T10:57:40;12.40;;;7.50;;
16854;SDS011;8543;54.522;18.550;2023-03-01T11:02:38;9.90;;;6.70;;
16854;SDS011;8543;54.522;18.550;2023-03-01T11:10:17;12.30;;;7.70;;
16854;SDS011;8543;54.522;18.550;2023-03-01T11:12:43;10.80;;;7.40;;
16854;SDS011;8543;54.522;18.550;2023-03-01T11:15:19;12.30;;;8.00;;
16854;SDS011;8543;54.522;18.550;2023-03-01T11:17:48;14.10;;;7.90;;
16854;SDS011;8543;54.522;18.550;2023-03-01T11:20:20;13.80;;;7.80;;
16854;SDS011;8543;54.522;18.550;2023-03-01T11:22:52;26.70;;;9.60;;
16854;SDS011;8543;54.522;18.550;2023-03-01T11:25:20;13.00;;;7.30;;
16854;SDS011;8543;54.522;18.550;2023-03-01T11:27:49;15.00;;;8.10;;
16854;SDS011;8543;54.522;18.550;2023-03-01T11:30:18;16.30;;;8.70;;
16854;SDS011;8543;54.522;18.550;2023-03-01T11:33:10;12.40;;;7.60;;
16854;SDS011;8543;54.522;18.550;2023-03-01T11:35:42;13.50;;;8.20;;
16854;SDS011;8543;54.522;18.550;2023-03-01T11:38:24;13.50;;;8.30;;
16854;SDS011;8543;54.522;18.550;2023-03-01T11:54:13;12.90;;;7.60;;
16854;SDS011;8543;54.522;18.550;2023-03-01T11:56:45;11.80;;;7.30;;
16854;SDS011;8543;54.522;18.550;2023-03-01T12:07:36;12.10;;;7.60;;
16854;SDS011;8543;54.522;18.550;2023-03-01T12:10:15;10.00;;;6.30;;
16854;SDS011;8543;54.522;18.550;2023-03-01T12:15:42;11.70;;;7.70;;
16854;SDS011;8543;54.522;18.550;2023-03-01T12:26:32;12.10;;;7.60;;
16854;SDS011;8543;54.522;18.550;2023-03-01T12:29:13;11.20;;;7.30;;
16854;SDS011;8543;54.522;18.550;2023-03-01T12:31:49;16.10;;;7.90;;
16854;SDS011;8543;54.522;18.550;2023-03-01T12:46:13;12.50;;;6.90;;
16854;SDS011;8543;54.522;18.550;2023-03-01T12:51:23;10.30;;;6.30;;
16854;SDS011;8543;54.522;18.550;2023-03-01T12:53:51;13.90;;;6.50;;
16854;SDS011;8543;54.522;18.550;2023-03-01T12:56:22;10.70;;;6.40;;
16854;SDS011;8543;54.522;18.550;2023-03-01T13:04:20;11.50;;;7.40;;
16854;SDS011;8543;54.522;18.550;2023-03-01T13:07:19;16.00;;;7.70;;
16854;SDS011;8543;54.522;18.550;2023-03-01T13:10:06;12.30;;;7.70;;
16854;SDS011;8543;54.522;18.550;2023-03-01T13:12:46;17.50;;;9.00;;
16854;SDS011;8543;54.522;18.550;2023-03-01T13:15:24;11.20;;;6.80;;
16854;SDS011;8543;54.522;18.550;2023-03-01T13:18:00;11.00;;;6.60;;
16854;SDS011;8543;54.522;18.550;2023-03-01T13:25:38;10.70;;;6.30;;
16854;SDS011;8543;54.522;18.550;2023-03-01T13:36:08;10.30;;;6.40;;
16854;SDS011;8543;54.522;18.550;2023-03-01T13:38:42;11.80;;;6.50;;
16854;SDS011;8543;54.522;18.550;2023-03-01T13:41:17;11.30;;;5.70;;
16854;SDS011;8543;54.522;18.550;2023-03-01T13:43:56;11.10;;;6.30;;
16854;SDS011;8543;54.522;18.550;2023-03-01T13:46:23;10.80;;;6.40;;
16854;SDS011;8543;54.522;18.550;2023-03-01T13:48:53;9.70;;;6.10;;
16854;SDS011;8543;54.522;18.550;2023-03-01T13:51:23;10.90;;;6.30;;
16854;SDS011;8543;54.522;18.550;2023-03-01T13:53:51;12.00;;;5.90;;
16854;SDS011;8543;54.522;18.550;2023-03-01T13:56:19;11.70;;;6.40;;
16854;SDS011;8543;54.522;18.550;2023-03-01T13:58:50;11.30;;;6.50;;
16854;SDS011;8543;54.522;18.550;2023-03-01T14:01:22;10.10;;;5.80;;
16854;SDS011;8543;54.522;18.550;2023-03-01T14:03:48;9.90;;;6.30;;
16854;SDS011;8543;54.522;18.550;2023-03-01T14:06:17;12.50;;;6.90;;
16854;SDS011;8543;54.522;18.550;2023-03-01T14:08:47;9.50;;;6.10;;
16854;SDS011;8543;54.522;18.550;2023-03-01T14:14:10;10.30;;;6.20;;
16854;SDS011;8543;54.522;18.550;2023-03-01T14:19:34;9.70;;;5.60;;
16854;SDS011;8543;54.522;18.550;2023-03-01T14:22:01;8.50;;;5.40;;
16854;SDS011;8543;54.522;18.550;2023-03-01T14:24:31;10.50;;;5.90;;
16854;SDS011;8543;54.522;18.550;2023-03-01T14:27:08;14.30;;;6.40;;
16854;SDS011;8543;54.522;18.550;2023-03-01T14:29:37;11.10;;;5.80;;
16854;SDS011;8543;54.522;18.550;2023-03-01T14:32:11;9.70;;;5.90;;
16854;SDS011;8543;54.522;18.550;2023-03-01T14:34:45;11.90;;;6.00;;
16854;SDS011;8543;54.522;18.550;2023-03-01T14:37:17;12.30;;;6.50;;
16854;SDS011;8543;54.522;18.550;2023-03-01T14:39:46;10.20;;;6.40;;
16854;SDS011;8543;54.522;18.550;2023-03-01T14:42:12;12.60;;;6.80;;
16854;SDS011;8543;54.522;18.550;2023-03-01T14:44:40;12.00;;;6.60;;
16854;SDS011;8543;54.522;18.550;2023-03-01T14:47:10;10.20;;;6.30;;
16854;SDS011;8543;54.522;18.550;2023-03-01T14:49:41;12.10;;;6.50;;
16854;SDS011;8543;54.522;18.550;2023-03-01T14:52:17;7.90;;;4.30;;
16854;SDS011;8543;54.522;18.550;2023-03-01T14:54:46;6.10;;;3.70;;
16854;SDS011;8543;54.522;18.550;2023-03-01T14:57:16;7.90;;;3.50;;
16854;SDS011;8543;54.522;18.550;2023-03-01T14:59:44;6.60;;;3.30;;
16854;SDS011;8543;54.522;18.550;2023-03-01T15:02:14;6.90;;;3.70;;
16854;SDS011;8543;54.522;18.550;2023-03-01T15:04:49;5.60;;;2.80;;
16854;SDS011;8543;54.522;18.550;2023-03-01T15:07:16;7.10;;;3.50;;
16854;SDS011;8543;54.522;18.550;2023-03-01T15:09:43;7.50;;;3.10;;
16854;SDS011;8543;54.522;18.550;2023-03-01T15:15:20;6.10;;;3.40;;
16854;SDS011;8543;54.522;18.550;2023-03-01T15:17:52;5.30;;;3.40;;
16854;SDS011;8543;54.522;18.550;2023-03-01T15:20:20;6.70;;;3.40;;
16854;SDS011;8543;54.522;18.550;2023-03-01T15:22:46;7.60;;;3.60;;
16854;SDS011;8543;54.522;18.550;2023-03-01T15:25:19;13.30;;;6.10;;
16854;SDS011;8543;54.522;18.550;2023-03-01T15:27:47;13.60;;;6.90;;
16854;SDS011;8543;54.522;18.550;2023-03-01T15:30:18;8.70;;;5.50;;
16854;SDS011;8543;54.522;18.550;2023-03-01T15:35:52;12.00;;;6.00;;
16854;SDS011;8543;54.522;18.550;2023-03-01T15:41:28;9.50;;;5.50;;
16854;SDS011;8543;54.522;18.550;2023-03-01T15:43:56;12.30;;;6.40;;
16854;SDS011;8543;54.522;18.550;2023-03-01T15:46:27;11.60;;;6.70;;
16854;SDS011;8543;54.522;18.550;2023-03-01T15:48:58;12.80;;;6.70;;
16854;SDS011;8543;54.522;18.550;2023-03-01T15:51:29;12.80;;;6.90;;
16854;SDS011;8543;54.522;18.550;2023-03-01T15:53:57;12.10;;;6.90;;
16854;SDS011;8543;54.522;18.550;2023-03-01T15:56:25;12.00;;;6.20;;
16854;SDS011;8543;54.522;18.550;2023-03-01T15:58:50;10.50;;;5.00;;
16854;SDS011;8543;54.522;18.550;2023-03-01T16:01:16;8.50;;;4.50;;
16854;SDS011;8543;54.522;18.550;2023-03-01T16:03:42;7.30;;;3.80;;
16854;SDS011;8543;54.522;18.550;2023-03-01T16:06:09;12.30;;;5.20;;
16854;SDS011;8543;54.522;18.550;2023-03-01T16:08:35;7.30;;;4.00;;
16854;SDS011;8543;54.522;18.550;2023-03-01T16:11:02;7.50;;;4.40;;
16854;SDS011;8543;54.522;18.550;2023-03-01T16:13:30;10.90;;;5.50;;
16854;SDS011;8543;54.522;18.550;2023-03-01T16:15:56;8.70;;;4.10;;
16854;SDS011;8543;54.522;18.550;2023-03-01T16:18:22;7.10;;;3.40;;
16854;SDS011;8543;54.522;18.550;2023-03-01T16:20:47;6.90;;;4.20;;
16854;SDS011;8543;54.522;18.550;2023-03-01T16:23:14;7.10;;;4.10;;
16854;SDS011;8543;54.522;18.550;2023-03-01T16:25:40;9.20;;;4.20;;
16854;SDS011;8543;54.522;18.550;2023-03-01T16:28:05;9.00;;;4.20;;
16854;SDS011;8543;54.522;18.550;2023-03-01T16:30:34;6.70;;;3.80;;
16854;SDS011;8543;54.522;18.550;2023-03-01T16:33:00;7.00;;;3.50;;
16854;SDS011;8543;54.522;18.550;2023-03-01T16:35:26;8.10;;;3.70;;
16854;SDS011;8543;54.522;18.550;2023-03-01T16:37:52;7.80;;;3.90;;
16854;SDS011;8543;54.522;18.550;2023-03-01T16:40:20;7.80;;;3.80;;
16854;SDS011;8543;54.522;18.550;2023-03-01T16:42:50;8.60;;;3.70;;
16854;SDS011;8543;54.522;18.550;2023-03-01T16:45:17;7.60;;;4.20;;
16854;SDS011;8543;54.522;18.550;2023-03-01T16:47:43;7.00;;;4.20;;
16854;SDS011;8543;54.522;18.550;2023-03-01T16:50:08;8.70;;;4.80;;